Paderborn Lippstadt Airport EDLP

Flugplatz Daten

Name: Paderborn Lippstadt Airport

Ident: EDLP

Lat: 51,61410141

Long: 8,616319656

Platzhöhe: 699 ft

IataCode: PAD

City: Paderborn

Metar

2022/08/10 19:50
EDLP 101950Z 08004KT CAVOK 20/08 Q1024

Taf

2022/08/10 18:27
TAF EDLP 101700Z 1018/1118 07006KT CAVOK
BECMG 1018/1021 13004KT
BECMG 1107/1109 07007KT
Gewünschte Webcam nicht vorhanden? Dann fügen Sie eine hinzu. Sie wird dann so schnell wie möglich freigeschaltet
Url: Title: